createdAt,value
2023-04-23T00:00:39.017Z,12.3
2023-04-23T00:15:39.361Z,12.3
2023-04-23T00:30:40.001Z,12.2
2023-04-23T00:45:40.421Z,12.4
2023-04-23T01:00:44.342Z,11.9
2023-04-23T01:15:42.570Z,11.6
2023-04-23T01:30:44.264Z,11.3
2023-04-23T01:45:43.392Z,11.3
2023-04-23T02:00:44.451Z,11.7
2023-04-23T02:15:48.249Z,11.2
2023-04-23T02:30:45.375Z,11.4
2023-04-23T02:45:46.927Z,11.4
2023-04-23T03:00:46.824Z,10.7
2023-04-23T03:15:46.582Z,10.8
2023-04-23T03:30:48.002Z,10.4
2023-04-23T03:45:48.227Z,10.5
2023-04-23T04:00:49.224Z,10.8
2023-04-23T04:15:50.020Z,10.7
2023-04-23T04:30:49.945Z,10.5
2023-04-23T04:31:56.819Z,10.5
2023-04-23T04:46:56.340Z,10.4
2023-04-23T05:01:57.203Z,10.9
2023-04-23T05:16:58.557Z,10.9
2023-04-23T05:31:58.712Z,10.6
2023-04-23T05:46:59.658Z,10.5
2023-04-23T06:02:00.170Z,10.5
2023-04-23T06:17:00.361Z,10.4
2023-04-23T06:32:09.181Z,10.4
2023-04-23T06:47:09.185Z,10.6
2023-04-23T07:02:04.250Z,11.1
2023-04-23T07:32:04.651Z,10.6
2023-04-23T07:47:06.349Z,10.8
2023-04-23T08:02:07.276Z,11.3
2023-04-23T08:17:06.374Z,11.7
2023-04-23T08:32:08.138Z,12.1
2023-04-23T08:47:08.058Z,12
2023-04-23T09:02:09.575Z,12.6
2023-04-23T09:17:09.972Z,13.1
2023-04-23T09:32:10.795Z,14.6
2023-04-23T09:47:10.711Z,14.9
2023-04-23T10:02:12.744Z,15.6
2023-04-23T10:17:12.920Z,16.7
2023-04-23T10:32:13.369Z,17.1
2023-04-23T10:47:13.610Z,18.5
2023-04-23T11:02:15.061Z,17.7
2023-04-23T11:17:15.591Z,17.7
2023-04-23T11:32:18.377Z,18.3
2023-04-23T11:47:17.270Z,17.3
2023-04-23T12:02:17.506Z,17.2
2023-04-23T12:17:16.917Z,16.6
2023-04-23T12:32:18.758Z,17.1
2023-04-23T12:47:18.585Z,17.5
2023-04-23T13:02:19.460Z,18.3
2023-04-23T13:17:20.109Z,20.1
2023-04-23T13:32:22.936Z,19.4
2023-04-23T13:47:22.086Z,19.8
2023-04-23T14:02:23.408Z,21.6
2023-04-23T14:17:22.286Z,22.9
2023-04-23T14:32:23.189Z,24.1
2023-04-23T14:47:25.457Z,23.2
2023-04-23T15:02:24.665Z,21.8
2023-04-23T15:17:25.770Z,22.2
2023-04-23T15:32:25.169Z,21
2023-04-23T15:47:26.906Z,21
2023-04-23T16:02:29.699Z,17.1
2023-04-23T16:17:28.140Z,16.7
2023-04-23T16:32:28.302Z,16.2
2023-04-23T18:02:32.192Z,11.3
2023-04-23T18:17:32.804Z,11.6
2023-04-23T18:32:40.769Z,11.4
2023-04-23T18:47:34.141Z,11.1
2023-04-23T19:02:36.965Z,11.1
2023-04-23T19:17:36.720Z,11
2023-04-23T19:32:37.171Z,10.9
2023-04-23T19:47:37.803Z,10.8
2023-04-23T20:02:40.335Z,11
2023-04-23T20:17:39.473Z,10.8
2023-04-23T20:59:22.357Z,10.2
2023-04-23T21:02:41.664Z,10
2023-04-23T21:17:41.659Z,9.6
2023-04-23T21:32:42.148Z,9.4
2023-04-23T21:47:44.399Z,9.4
2023-04-23T22:00:41.349Z,9
2023-04-23T22:15:37.827Z,8.8
2023-04-23T22:30:39.990Z,8.8
2023-04-23T22:45:38.960Z,8.6
2023-04-23T23:00:38.078Z,8.4
2023-04-23T23:15:38.540Z,8.3
2023-04-23T23:30:39.438Z,8.1
2023-04-23T23:45:40.253Z,7.8
